Time;durP1;ratioP1;P1;durP2;ratioP2;P2;SDS_P1;SDS_P2;PMS_P1;PMS_P2;Temp;Humidity;BMP_temperature;BMP_pressure;BME280_temperature;BME280_humidity;BME280_pressure;Samples;Min_cycle;Max_cycle;Signal;HPM_P1;HPM_P2
2022/07/14 00:00:22;;;;;;;27.00;25.57;;;23.50;55.00;;;;;;4966732;28;20537;-68
2022/07/14 00:02:49;;;;;;;26.57;25.17;;;23.50;55.20;;;;;;4966859;28;20459;-68
2022/07/14 00:05:17;;;;;;;25.67;24.30;;;23.50;55.40;;;;;;4967369;28;21026;-69
2022/07/14 00:07:44;;;;;;;25.90;24.40;;;23.50;55.40;;;;;;4962528;28;20467;-68
2022/07/14 00:10:11;;;;;;;25.77;24.37;;;23.50;55.40;;;;;;4968970;28;20462;-68
2022/07/14 00:12:38;;;;;;;25.17;23.80;;;23.40;55.60;;;;;;4967404;28;20779;-68
2022/07/14 00:15:06;;;;;;;25.97;24.57;;;23.40;56.00;;;;;;4963892;28;20533;-68
2022/07/14 00:17:33;;;;;;;25.80;24.40;;;23.40;56.20;;;;;;4967339;28;20474;-68
2022/07/14 00:20:00;;;;;;;25.97;24.57;;;23.40;56.10;;;;;;4968810;28;21003;-68
2022/07/14 00:22:28;;;;;;;26.33;24.93;;;23.30;56.00;;;;;;4967545;28;20558;-68
2022/07/14 00:24:55;;;;;;;27.03;25.23;;;23.40;56.70;;;;;;4965914;28;20488;-68
2022/07/14 00:27:22;;;;;;;25.23;23.83;;;23.30;56.90;;;;;;4968194;28;20816;-68
2022/07/14 00:29:49;;;;;;;25.73;24.43;;;23.30;57.00;;;;;;4967145;28;20483;-68
2022/07/14 00:32:16;;;;;;;25.63;24.23;;;23.20;57.20;;;;;;4966303;28;20836;-68
2022/07/14 00:34:43;;;;;;;26.13;24.73;;;23.10;57.70;;;;;;4967090;28;20551;-68
2022/07/14 00:37:10;;;;;;;25.17;23.77;;;23.10;58.10;;;;;;4961533;28;20561;-70
2022/07/14 00:39:57;;;;;;;25.00;23.57;;;23.00;57.90;;;;;;4969819;28;20562;-70
2022/07/14 00:42:32;;;;;;;25.47;23.97;;;23.00;57.90;;;;;;4965871;28;20908;-70
2022/07/14 00:44:59;;;;;;;26.20;24.80;;;23.00;57.90;;;;;;4965502;28;20517;-70
2022/07/14 00:47:26;;;;;;;25.70;24.40;;;22.90;58.60;;;;;;4966387;28;20832;-70
2022/07/14 00:49:54;;;;;;;25.77;24.37;;;22.90;59.30;;;;;;4962684;28;20497;-70
2022/07/14 00:52:22;;;;;;;25.53;23.63;;;22.70;60.00;;;;;;4967169;28;20473;-69
2022/07/14 00:54:51;;;;;;;25.30;23.90;;;22.60;60.20;;;;;;4964805;28;20532;-68
2022/07/14 00:57:19;;;;;;;24.90;23.60;;;22.40;60.40;;;;;;4962157;28;20956;-68
2022/07/14 00:59:46;;;;;;;25.80;24.20;;;22.30;61.10;;;;;;4967933;28;20483;-70
2022/07/14 01:02:13;;;;;;;25.13;23.73;;;22.20;60.90;;;;;;4965388;28;20467;-71
2022/07/14 01:04:41;;;;;;;26.40;24.80;;;22.00;61.30;;;;;;4962238;28;20562;-70
2022/07/14 01:07:08;;;;;;;26.73;25.17;;;22.00;61.10;;;;;;4967216;28;20692;-68
2022/07/14 01:09:34;;;;;;;26.63;25.23;;;22.00;60.90;;;;;;4966430;28;20488;-68
2022/07/14 01:12:03;;;;;;;26.23;24.73;;;22.00;60.80;;;;;;4967744;28;20466;-68
2022/07/14 01:14:30;;;;;;;24.90;23.50;;;22.10;60.90;;;;;;4963623;28;20587;-68
2022/07/14 01:16:58;;;;;;;25.73;24.13;;;22.00;60.80;;;;;;4969013;28;20545;-69
2022/07/14 01:19:25;;;;;;;24.83;23.43;;;22.00;60.80;;;;;;4967015;28;20492;-68
2022/07/14 01:21:55;;;;;;;26.63;24.83;;;22.00;61.00;;;;;;4966812;28;20463;-68
2022/07/14 01:24:22;;;;;;;24.80;23.33;;;22.00;61.80;;;;;;4966772;28;20462;-69
2022/07/14 01:26:49;;;;;;;25.33;23.80;;;22.00;61.40;;;;;;4968734;28;20544;-69
2022/07/14 01:29:17;;;;;;;24.70;23.40;;;21.90;61.20;;;;;;4965112;28;20513;-68
2022/07/14 01:31:44;;;;;;;24.80;23.37;;;21.90;61.50;;;;;;4964209;28;21064;-69
2022/07/14 01:34:11;;;;;;;24.73;23.30;;;21.80;62.20;;;;;;4966337;28;20487;-68
2022/07/14 01:36:39;;;;;;;25.60;24.20;;;21.70;62.60;;;;;;4964597;28;20472;-68
2022/07/14 01:39:07;;;;;;;25.63;24.13;;;21.60;62.80;;;;;;4963409;28;20480;-68
2022/07/14 01:41:34;;;;;;;25.40;24.00;;;21.50;62.90;;;;;;4967867;28;20478;-68
2022/07/14 01:44:02;;;;;;;24.83;23.53;;;21.40;62.90;;;;;;4966968;28;20576;-69
2022/07/14 01:46:28;;;;;;;25.80;24.40;;;21.40;62.90;;;;;;4965766;28;20978;-68
2022/07/14 01:48:55;;;;;;;25.27;23.80;;;21.40;63.00;;;;;;4965827;28;20677;-68
2022/07/14 01:51:22;;;;;;;25.60;24.20;;;21.30;63.20;;;;;;4970153;28;20545;-68
2022/07/14 01:53:50;;;;;;;26.30;24.90;;;21.30;63.60;;;;;;4968629;28;20485;-68
2022/07/14 01:56:18;;;;;;;26.03;24.63;;;21.10;64.00;;;;;;4971488;28;20466;-68
2022/07/14 01:58:45;;;;;;;26.20;24.70;;;21.10;64.20;;;;;;4972644;28;20478;-68
2022/07/14 02:03:59;;;;;;;25.67;24.03;;;21.00;64.70;;;;;;4969154;28;20590;-68
2022/07/14 02:06:26;;;;;;;24.87;23.47;;;20.90;64.80;;;;;;4970639;28;20529;-68
2022/07/14 02:08:53;;;;;;;24.60;23.30;;;20.80;65.10;;;;;;4970094;28;20489;-68
2022/07/14 02:14:06;;;;;;;24.73;23.23;;;20.60;65.60;;;;;;4969164;28;20477;-68
2022/07/14 02:16:33;;;;;;;25.00;23.60;;;20.50;65.80;;;;;;4960502;28;20466;-70
2022/07/14 02:19:00;;;;;;;24.90;23.50;;;20.50;65.70;;;;;;4967752;28;20487;-70
2022/07/14 02:21:28;;;;;;;25.00;23.70;;;20.40;65.70;;;;;;4969885;28;20464;-68
2022/07/14 02:23:56;;;;;;;25.53;24.03;;;20.30;66.00;;;;;;4969688;28;20946;-68
2022/07/14 02:26:25;;;;;;;24.80;23.40;;;20.30;66.00;;;;;;4963340;28;20465;-68
2022/07/14 02:28:52;;;;;;;24.50;23.10;;;20.20;66.30;;;;;;4968478;28;20485;-68
2022/07/14 02:31:18;;;;;;;25.70;23.80;;;20.10;66.60;;;;;;4969549;28;20491;-70
2022/07/14 02:33:46;;;;;;;25.03;23.70;;;20.10;66.70;;;;;;4967739;28;21010;-68
2022/07/14 02:36:13;;;;;;;26.13;24.47;;;20.10;66.60;;;;;;4971525;28;20470;-69
2022/07/14 02:38:40;;;;;;;25.63;24.03;;;20.00;66.80;;;;;;4969119;28;20611;-70
2022/07/14 02:41:07;;;;;;;25.53;24.13;;;20.00;66.70;;;;;;4969595;28;20542;-69
2022/07/14 02:43:36;;;;;;;25.20;23.80;;;20.00;66.60;;;;;;4969611;28;20997;-70
2022/07/14 02:46:03;;;;;;;25.33;23.93;;;19.90;66.70;;;;;;4969872;28;20472;-69
2022/07/14 02:48:30;;;;;;;25.47;23.90;;;19.90;66.70;;;;;;4968351;28;20484;-70
2022/07/14 02:51:02;;;;;;;25.47;23.97;;;19.90;66.60;;;;;;4968329;28;20473;-69
2022/07/14 02:53:30;;;;;;;25.57;24.17;;;19.90;66.80;;;;;;4969836;28;20567;-70
2022/07/14 02:55:57;;;;;;;26.10;24.70;;;19.80;66.90;;;;;;4970894;28;20540;-70
2022/07/14 02:58:25;;;;;;;25.33;23.90;;;19.70;67.20;;;;;;4969844;28;20483;-70
2022/07/14 03:00:54;;;;;;;29.23;27.53;;;19.60;67.30;;;;;;4968705;28;20468;-70
2022/07/14 03:03:21;;;;;;;27.40;25.80;;;19.60;67.30;;;;;;4963022;28;20557;-70
2022/07/14 03:05:48;;;;;;;25.30;23.80;;;19.50;67.40;;;;;;4968323;28;20471;-70
2022/07/14 03:08:16;;;;;;;28.17;26.57;;;19.40;67.40;;;;;;4960418;28;20483;-70
2022/07/14 03:10:43;;;;;;;28.13;26.53;;;19.40;67.40;;;;;;4969349;28;20893;-70
2022/07/14 03:13:10;;;;;;;26.60;25.10;;;19.40;67.50;;;;;;4969431;28;20555;-71
2022/07/14 03:15:39;;;;;;;25.47;23.67;;;19.40;67.50;;;;;;4970308;28;20492;-70
2022/07/14 03:18:07;;;;;;;26.70;24.70;;;19.40;67.50;;;;;;4965783;28;20578;-70
2022/07/14 03:20:34;;;;;;;25.43;23.87;;;19.30;67.20;;;;;;4966230;28;20460;-70
2022/07/14 03:23:01;;;;;;;27.17;25.50;;;19.30;67.30;;;;;;4968320;28;20459;-70
2022/07/14 03:25:28;;;;;;;27.00;25.40;;;19.20;67.90;;;;;;4969619;28;20464;-70
2022/07/14 03:27:55;;;;;;;26.60;25.00;;;19.30;67.60;;;;;;4969018;28;20482;-70
2022/07/14 03:30:22;;;;;;;26.43;24.40;;;19.20;67.80;;;;;;4969914;28;20813;-70
2022/07/14 03:32:49;;;;;;;26.83;25.23;;;19.20;68.00;;;;;;4968297;28;20938;-70
2022/07/14 03:35:17;;;;;;;26.67;25.17;;;19.20;67.50;;;;;;4969961;28;20964;-70
2022/07/14 03:37:44;;;;;;;25.10;23.60;;;19.20;66.60;;;;;;4963886;28;20472;-70
2022/07/14 03:40:12;;;;;;;26.90;25.10;;;19.30;65.70;;;;;;4969350;28;20581;-69
2022/07/14 03:42:39;;;;;;;25.60;24.20;;;19.40;64.90;;;;;;4968248;28;20474;-70
2022/07/14 03:45:07;;;;;;;24.90;23.50;;;19.40;64.90;;;;;;4968948;28;20458;-70
2022/07/14 03:47:34;;;;;;;24.67;23.23;;;19.50;64.20;;;;;;4966971;28;20511;-70
2022/07/14 03:50:00;;;;;;;24.53;23.17;;;19.50;64.00;;;;;;4967958;28;20526;-70
2022/07/14 03:52:29;;;;;;;24.97;23.50;;;19.60;63.90;;;;;;4967122;28;20543;-69
2022/07/14 03:54:56;;;;;;;26.43;24.83;;;19.70;63.60;;;;;;4969677;28;20487;-69
2022/07/14 03:57:23;;;;;;;25.87;23.90;;;19.70;63.90;;;;;;4968171;28;20467;-70
2022/07/14 03:59:50;;;;;;;27.67;26.07;;;19.90;63.10;;;;;;4970702;28;20475;-69
2022/07/14 04:02:17;;;;;;;27.67;26.07;;;20.00;62.70;;;;;;4964710;28;20462;-69
2022/07/14 04:04:44;;;;;;;28.77;27.07;;;20.20;62.50;;;;;;4968166;28;20545;-69
2022/07/14 04:07:11;;;;;;;27.70;26.20;;;20.30;62.10;;;;;;4962609;28;20453;-71
2022/07/14 04:09:39;;;;;;;25.73;24.33;;;20.50;61.60;;;;;;4971305;28;20481;-70
2022/07/14 04:12:07;;;;;;;26.03;24.60;;;20.70;60.90;;;;;;4965313;28;20554;-71
2022/07/14 04:14:34;;;;;;;29.00;27.30;;;20.80;60.60;;;;;;4967897;28;20564;-70
2022/07/14 04:17:01;;;;;;;29.10;27.50;;;20.90;60.40;;;;;;4964615;28;20477;-70
2022/07/14 04:19:28;;;;;;;26.67;25.07;;;20.90;60.60;;;;;;4968928;28;20569;-70
2022/07/14 04:21:55;;;;;;;28.43;26.83;;;20.90;60.40;;;;;;4967550;28;20963;-70
2022/07/14 04:24:22;;;;;;;26.33;24.83;;;20.90;60.70;;;;;;4967619;28;20466;-70
2022/07/14 04:26:50;;;;;;;25.77;24.33;;;20.90;60.50;;;;;;4968275;28;22202;-70
2022/07/14 04:29:17;;;;;;;30.10;28.50;;;20.80;60.90;;;;;;4968097;28;20490;-70
2022/07/14 04:31:44;;;;;;;27.97;26.10;;;20.60;61.30;;;;;;4969343;28;20468;-70
2022/07/14 04:34:11;;;;;;;27.80;26.30;;;20.50;61.80;;;;;;4969085;28;20589;-70
2022/07/14 04:36:38;;;;;;;25.93;24.53;;;20.50;62.30;;;;;;4963833;28;20562;-70
2022/07/14 04:39:06;;;;;;;26.77;25.27;;;20.50;62.30;;;;;;4962181;28;20482;-70
2022/07/14 04:41:36;;;;;;;26.87;25.43;;;20.50;62.20;;;;;;4972356;28;20990;-70
2022/07/14 04:44:05;;;;;;;29.30;27.57;;;20.50;62.00;;;;;;4974694;28;20474;-69
2022/07/14 04:46:32;;;;;;;28.40;26.57;;;20.60;62.10;;;;;;4968667;28;20473;-69
2022/07/14 04:54:27;;;;;;;29.40;27.50;;;20.50;63.50;;;;;;4965985;28;20987;-72
2022/07/14 04:56:54;;;;;;;28.93;27.23;;;20.20;64.10;;;;;;4969320;28;20472;-72
2022/07/14 04:59:23;;;;;;;28.80;27.27;;;20.30;64.00;;;;;;4966771;28;20580;-73
2022/07/14 05:01:50;;;;;;;26.10;24.50;;;20.40;63.90;;;;;;4966819;28;20562;-73
2022/07/14 05:04:17;;;;;;;27.67;26.07;;;20.50;63.60;;;;;;4965766;28;20462;-73
2022/07/14 05:06:46;;;;;;;26.27;24.77;;;20.60;62.70;;;;;;4961947;28;20570;-73
2022/07/14 05:09:14;;;;;;;26.50;24.87;;;20.70;62.50;;;;;;4967971;28;20487;-75
2022/07/14 05:11:41;;;;;;;28.40;26.77;;;20.80;62.40;;;;;;4967853;28;20483;-73
2022/07/14 05:14:08;;;;;;;26.53;25.03;;;21.10;62.20;;;;;;4964665;28;20500;-72
2022/07/14 05:16:37;;;;;;;26.87;25.20;;;21.30;61.00;;;;;;4968514;28;20879;-72
2022/07/14 05:19:04;;;;;;;28.83;26.97;;;21.30;60.70;;;;;;4968640;28;20566;-71
2022/07/14 05:21:31;;;;;;;27.00;25.50;;;21.40;61.00;;;;;;4968588;28;20477;-73
2022/07/14 05:23:58;;;;;;;27.80;26.10;;;21.60;61.00;;;;;;4967632;28;20463;-71
2022/07/14 05:26:25;;;;;;;27.40;25.90;;;21.50;61.20;;;;;;4970358;28;20491;-72
2022/07/14 05:28:52;;;;;;;27.50;26.00;;;21.50;61.40;;;;;;4968804;28;20592;-72
2022/07/14 05:31:19;;;;;;;30.93;28.93;;;21.60;61.60;;;;;;4970673;28;20836;-72
2022/07/14 05:33:56;;;;;;;30.80;28.80;;;21.80;61.30;;;;;;4964249;28;20543;-72
2022/07/14 05:36:23;;;;;;;27.57;25.87;;;22.00;61.00;;;;;;4963855;28;20560;-71
2022/07/14 05:38:51;;;;;;;28.03;26.23;;;22.10;60.90;;;;;;4970004;28;21024;-72
2022/07/14 05:41:19;;;;;;;28.10;26.40;;;22.30;60.40;;;;;;4969891;28;20556;-72
2022/07/14 05:43:46;;;;;;;28.50;27.00;;;22.40;60.10;;;;;;4970907;28;20467;-71
2022/07/14 05:46:14;;;;;;;28.10;26.47;;;22.40;59.50;;;;;;4974170;28;20486;-71
2022/07/14 05:48:41;;;;;;;29.77;27.83;;;22.40;59.80;;;;;;4971576;28;20580;-69
2022/07/14 05:51:11;;;;;;;27.50;25.90;;;22.50;59.70;;;;;;4972408;28;20548;-69
2022/07/14 05:53:38;;;;;;;27.83;26.20;;;22.60;59.80;;;;;;4974080;28;20926;-69
2022/07/14 05:56:07;;;;;;;30.40;28.60;;;22.80;59.50;;;;;;4972575;28;20479;-68
2022/07/14 05:58:35;;;;;;;28.50;26.73;;;23.00;58.70;;;;;;4974292;28;21047;-69
2022/07/14 06:01:03;;;;;;;30.13;28.43;;;23.20;58.40;;;;;;4974372;28;20502;-70
2022/07/14 06:03:30;;;;;;;32.07;30.03;;;23.40;57.90;;;;;;4971505;28;20466;-70
2022/07/14 06:06:00;;;;;;;31.50;29.73;;;23.60;57.60;;;;;;4972373;28;21263;-70
2022/07/14 06:08:29;;;;;;;30.03;28.33;;;23.90;57.10;;;;;;4971976;28;20853;-71
2022/07/14 06:10:57;;;;;;;30.57;28.77;;;24.00;56.40;;;;;;4973308;28;20467;-69
2022/07/14 06:13:25;;;;;;;30.47;28.70;;;24.30;56.10;;;;;;4974292;28;20463;-69
2022/07/14 06:15:52;;;;;;;29.80;28.07;;;24.50;56.20;;;;;;4974030;28;20582;-69
2022/07/14 06:18:20;;;;;;;30.37;28.37;;;24.70;55.70;;;;;;4972757;28;20549;-69
2022/07/14 06:20:47;;;;;;;28.13;26.47;;;24.90;55.50;;;;;;4971196;28;20833;-69
2022/07/14 06:23:14;;;;;;;30.97;29.07;;;25.10;55.40;;;;;;4974023;28;20462;-69
2022/07/14 06:25:43;;;;;;;29.90;28.00;;;25.20;55.20;;;;;;4974561;28;20579;-69
2022/07/14 06:28:11;;;;;;;29.37;27.40;;;25.50;55.00;;;;;;4972951;28;20562;-69
2022/07/14 06:30:38;;;;;;;30.00;27.90;;;25.60;55.00;;;;;;4973551;28;20458;-69
2022/07/14 06:33:05;;;;;;;30.60;28.80;;;25.70;54.20;;;;;;4971503;28;20837;-69
2022/07/14 06:35:31;;;;;;;32.47;30.57;;;25.80;53.70;;;;;;4970190;28;20932;-69
2022/07/14 06:37:59;;;;;;;31.13;29.23;;;25.80;53.70;;;;;;4972422;28;20601;-69
2022/07/14 06:40:26;;;;;;;30.13;28.43;;;25.90;53.30;;;;;;4973180;28;20548;-69
2022/07/14 06:42:55;;;;;;;32.27;30.27;;;26.10;53.10;;;;;;4973507;28;20484;-69
2022/07/14 06:45:22;;;;;;;31.10;29.13;;;26.20;53.10;;;;;;4973459;28;20517;-69
2022/07/14 06:47:49;;;;;;;29.73;27.83;;;26.50;52.40;;;;;;4973185;28;20462;-69
2022/07/14 06:50:15;;;;;;;33.57;31.37;;;26.60;52.40;;;;;;4972919;28;20455;-69
2022/07/14 06:52:42;;;;;;;32.30;29.90;;;26.80;52.10;;;;;;4971693;28;20459;-69
2022/07/14 06:55:10;;;;;;;31.63;29.63;;;27.00;51.10;;;;;;4972830;28;20570;-69
2022/07/14 06:57:37;;;;;;;29.73;27.90;;;27.10;51.00;;;;;;4972412;28;20976;-69
2022/07/14 07:00:08;;;;;;;31.53;29.53;;;27.20;50.40;;;;;;4972520;28;21063;-69
2022/07/14 07:02:36;;;;;;;33.17;31.17;;;27.30;50.00;;;;;;4972568;28;20456;-69
2022/07/14 07:07:49;;;;;;;32.63;30.73;;;27.60;49.20;;;;;;4971565;28;20523;-71
2022/07/14 07:10:16;;;;;;;33.53;31.23;;;27.80;48.90;;;;;;4973336;28;20567;-71
2022/07/14 07:12:43;;;;;;;31.03;29.07;;;27.90;48.30;;;;;;4971852;28;21237;-71
2022/07/14 07:15:12;;;;;;;33.33;30.97;;;28.00;48.40;;;;;;4971725;28;20571;-72
2022/07/14 07:17:38;;;;;;;29.90;28.10;;;28.20;48.20;;;;;;4969298;28;20466;-71
2022/07/14 07:20:07;;;;;;;32.33;30.20;;;28.30;47.80;;;;;;4973028;28;20538;-71
2022/07/14 07:22:36;;;;;;;29.50;27.70;;;28.60;47.50;;;;;;4973081;28;20467;-70
2022/07/14 07:25:05;;;;;;;34.30;32.13;;;28.80;46.80;;;;;;4970417;28;20554;-71
2022/07/14 07:27:32;;;;;;;31.70;29.53;;;29.10;46.80;;;;;;4956631;28;20597;-71
2022/07/14 07:30:00;;;;;;;31.70;29.80;;;29.40;46.40;;;;;;4972997;28;20890;-71
2022/07/14 07:32:28;;;;;;;32.70;30.50;;;29.60;45.90;;;;;;4971975;28;20470;-71
2022/07/14 07:34:55;;;;;;;30.07;27.93;;;29.60;44.50;;;;;;4970938;28;20478;-71
2022/07/14 07:37:23;;;;;;;29.43;27.73;;;29.60;44.60;;;;;;4968919;28;20451;-71
2022/07/14 07:39:50;;;;;;;31.10;29.10;;;29.70;44.50;;;;;;4971252;28;20570;-71
2022/07/14 07:42:16;;;;;;;29.53;27.63;;;29.80;44.50;;;;;;4971727;28;20934;-71
2022/07/14 07:44:43;;;;;;;33.00;30.90;;;29.80;41.50;;;;;;4972034;28;20458;-71
2022/07/14 07:47:10;;;;;;;32.80;30.80;;;29.80;41.50;;;;;;4970568;28;20554;-71
2022/07/14 07:49:39;;;;;;;29.37;27.57;;;30.00;41.50;;;;;;4971899;28;20567;-71
2022/07/14 07:52:06;;;;;;;29.43;27.73;;;30.10;40.50;;;;;;4971803;28;21106;-71
2022/07/14 07:54:33;;;;;;;28.80;27.20;;;30.20;40.10;;;;;;4972036;28;20470;-71
2022/07/14 07:57:01;;;;;;;29.00;27.30;;;30.40;40.10;;;;;;4971142;28;20463;-70
2022/07/14 07:59:28;;;;;;;30.30;28.30;;;30.50;39.90;;;;;;4967682;28;20618;-70
2022/07/14 08:01:54;;;;;;;32.00;29.70;;;30.70;39.40;;;;;;4971315;28;20533;-69
2022/07/14 08:04:22;;;;;;;31.67;29.77;;;30.80;39.00;;;;;;4969847;28;20470;-69
2022/07/14 08:06:50;;;;;;;31.90;30.00;;;30.90;38.80;;;;;;4970070;28;20964;-69
2022/07/14 08:09:17;;;;;;;30.37;28.50;;;30.80;39.20;;;;;;4970685;28;20573;-69
2022/07/14 08:11:44;;;;;;;31.23;29.00;;;30.80;39.20;;;;;;4968098;28;20458;-69
2022/07/14 08:16:52;;;;;;;33.60;31.63;;;30.90;38.50;;;;;;4970845;28;20486;-70
2022/07/14 08:19:19;;;;;;;33.47;31.57;;;30.60;38.80;;;;;;4970134;28;20582;-69
2022/07/14 08:21:46;;;;;;;30.60;28.70;;;30.50;39.00;;;;;;4971451;28;20466;-69
2022/07/14 08:24:14;;;;;;;31.63;29.20;;;30.50;39.00;;;;;;4969661;28;20773;-69
2022/07/14 08:26:41;;;;;;;33.80;31.80;;;30.60;39.20;;;;;;4970755;28;20945;-70
2022/07/14 08:29:08;;;;;;;30.70;29.00;;;30.70;39.40;;;;;;4970101;28;20485;-69
2022/07/14 08:31:35;;;;;;;33.23;31.33;;;30.80;39.30;;;;;;4972289;28;20952;-70
2022/07/14 08:34:03;;;;;;;32.60;30.60;;;30.90;39.30;;;;;;4970163;28;20910;-69
2022/07/14 08:36:30;;;;;;;32.27;30.27;;;30.90;38.60;;;;;;4970270;28;20514;-69
2022/07/14 08:38:56;;;;;;;33.17;30.27;;;30.90;39.10;;;;;;4968484;28;21020;-70
2022/07/14 08:41:26;;;;;;;31.43;29.57;;;30.90;39.40;;;;;;4971170;28;20477;-70
2022/07/14 08:43:53;;;;;;;31.40;29.70;;;30.90;39.70;;;;;;4969491;28;20462;-69
2022/07/14 08:46:20;;;;;;;33.03;31.13;;;30.90;39.00;;;;;;4971987;28;20453;-70
2022/07/14 08:48:48;;;;;;;32.03;29.83;;;30.80;37.90;;;;;;4968064;28;20470;-69
2022/07/14 08:51:17;;;;;;;31.10;29.10;;;30.80;38.40;;;;;;4971082;28;20465;-69
2022/07/14 08:53:45;;;;;;;31.20;29.40;;;30.70;39.00;;;;;;4971085;28;20455;-70
2022/07/14 08:56:12;;;;;;;30.30;28.40;;;30.60;38.40;;;;;;4968644;28;21115;-70
2022/07/14 08:58:41;;;;;;;28.67;27.17;;;30.60;38.70;;;;;;4968492;28;20493;-71
2022/07/14 09:01:09;;;;;;;34.97;33.00;;;30.40;39.00;;;;;;4971561;28;20558;-71
2022/07/14 09:03:36;;;;;;;35.37;33.03;;;30.50;38.70;;;;;;4968982;28;21071;-71
2022/07/14 09:06:05;;;;;;;31.30;29.60;;;30.40;38.50;;;;;;4970166;28;20506;-71
2022/07/14 09:08:53;;;;;;;32.00;30.00;;;30.40;38.60;;;;;;4970945;28;20494;-71
2022/07/14 09:11:20;;;;;;;34.60;32.60;;;30.30;39.10;;;;;;4969827;28;20474;-72
2022/07/14 09:13:49;;;;;;;32.17;30.30;;;30.50;39.10;;;;;;4969551;28;20463;-69
2022/07/14 09:16:18;;;;;;;32.27;30.30;;;30.80;38.70;;;;;;4969527;28;20506;-69
2022/07/14 09:19:04;;;;;;;29.50;27.90;;;31.00;38.20;;;;;;4969618;28;20485;-69
2022/07/14 09:21:31;;;;;;;31.43;29.63;;;31.20;37.10;;;;;;4970501;28;21016;-69
2022/07/14 09:23:59;;;;;;;30.43;28.60;;;31.20;37.40;;;;;;4969917;28;20470;-70
2022/07/14 09:26:26;;;;;;;31.60;29.80;;;31.30;37.80;;;;;;4970927;28;20452;-69
2022/07/14 09:28:55;;;;;;;29.40;27.80;;;31.60;37.60;;;;;;4968722;28;20489;-70
2022/07/14 09:31:25;;;;;;;33.73;31.97;;;31.80;37.20;;;;;;4971557;28;20566;-71
2022/07/14 09:33:55;;;;;;;28.47;26.87;;;32.00;36.40;;;;;;4970537;28;20455;-71
2022/07/14 09:36:29;;;;;;;30.07;28.00;;;32.20;36.40;;;;;;4968341;28;20866;-71
2022/07/14 09:39:06;;;;;;;29.10;27.50;;;32.20;36.30;;;;;;4968950;28;20514;-72
2022/07/14 09:41:36;;;;;;;29.30;27.80;;;32.20;36.00;;;;;;4970343;28;20549;-71
2022/07/14 09:44:09;;;;;;;32.40;30.10;;;32.30;35.30;;;;;;4969804;28;20769;-71
2022/07/14 09:46:51;;;;;;;29.30;27.70;;;32.30;35.30;;;;;;4969467;28;20557;-71
2022/07/14 09:49:19;;;;;;;32.10;30.10;;;32.10;35.00;;;;;;4966847;28;20489;-71
2022/07/14 09:51:54;;;;;;;31.03;29.23;;;32.00;35.60;;;;;;4966164;28;20550;-71
2022/07/14 09:54:49;;;;;;;32.90;31.03;;;32.10;35.60;;;;;;4968625;28;20458;-71
2022/07/14 09:57:21;;;;;;;31.90;30.00;;;32.30;34.40;;;;;;4970628;28;20522;-71
2022/07/14 09:59:52;;;;;;;29.37;27.57;;;32.40;34.40;;;;;;4964824;28;20478;-71
2022/07/14 10:02:22;;;;;;;30.90;29.00;;;32.50;34.30;;;;;;4969860;28;20466;-71
2022/07/14 10:04:50;;;;;;;32.10;30.10;;;32.60;34.40;;;;;;4965438;28;20554;-71
2022/07/14 10:07:18;;;;;;;30.30;28.60;;;32.80;33.90;;;;;;4970616;28;20454;-71
2022/07/14 10:09:53;;;;;;;30.97;29.07;;;32.80;34.10;;;;;;4969973;28;20502;-71
2022/07/14 10:12:20;;;;;;;30.53;28.73;;;32.40;34.10;;;;;;4972787;28;20455;-71
2022/07/14 10:14:49;;;;;;;30.60;28.80;;;32.30;34.50;;;;;;4972972;28;21007;-71
2022/07/14 10:17:17;;;;;;;33.13;31.17;;;32.20;34.30;;;;;;4973054;28;20739;-71
2022/07/14 10:19:45;;;;;;;35.00;33.30;;;32.20;34.70;;;;;;4971538;28;20485;-70
2022/07/14 10:22:14;;;;;;;29.57;27.83;;;32.10;34.60;;;;;;4973219;28;20574;-72
2022/07/14 10:24:43;;;;;;;30.50;28.70;;;32.20;34.90;;;;;;4973983;28;20843;-71
2022/07/14 10:27:11;;;;;;;34.40;32.40;;;32.40;34.20;;;;;;4973720;28;20553;-70
2022/07/14 10:29:38;;;;;;;32.17;30.07;;;32.50;33.90;;;;;;4973203;28;20525;-70
2022/07/14 10:32:23;;;;;;;33.47;31.27;;;32.70;33.20;;;;;;4971017;28;20558;-71
2022/07/14 10:35:01;;;;;;;32.60;30.70;;;32.90;33.00;;;;;;4966822;28;21026;-70
2022/07/14 10:37:40;;;;;;;31.80;29.90;;;33.10;33.10;;;;;;4970768;28;20540;-70
2022/07/14 10:40:16;;;;;;;32.13;30.10;;;33.00;32.60;;;;;;4972833;28;20541;-69
2022/07/14 10:43:01;;;;;;;32.93;31.03;;;32.90;32.90;;;;;;4970595;28;20581;-69
2022/07/14 10:45:28;;;;;;;31.17;29.47;;;33.00;33.00;;;;;;4964706;28;20461;-69
2022/07/14 10:47:56;;;;;;;31.30;29.37;;;33.20;32.40;;;;;;4973229;28;20559;-69
2022/07/14 10:50:25;;;;;;;34.17;32.00;;;33.30;32.50;;;;;;4973778;28;20553;-69
2022/07/14 10:53:03;;;;;;;32.90;30.80;;;33.40;32.10;;;;;;4972698;28;20981;-69
2022/07/14 10:55:36;;;;;;;34.17;32.00;;;33.50;32.00;;;;;;4973039;28;20541;-69
2022/07/14 10:58:29;;;;;;;31.80;29.80;;;33.50;32.40;;;;;;4973090;28;20590;-69
2022/07/14 11:00:57;;;;;;;33.97;31.87;;;33.70;32.40;;;;;;4967643;28;20987;-69
2022/07/14 11:03:28;;;;;;;32.67;30.77;;;33.70;31.50;;;;;;4971307;28;20462;-70
2022/07/14 11:06:18;;;;;;;33.43;31.63;;;33.70;31.40;;;;;;4973211;28;20530;-69
2022/07/14 11:08:47;;;;;;;34.00;32.00;;;33.70;31.60;;;;;;4971988;28;20574;-69
2022/07/14 11:11:18;;;;;;;33.33;31.23;;;33.60;31.90;;;;;;4971709;28;20477;-69
2022/07/14 11:14:10;;;;;;;32.40;30.20;;;33.70;31.80;;;;;;4969991;28;20545;-71
2022/07/14 11:16:59;;;;;;;32.87;31.00;;;33.80;31.40;;;;;;4970285;28;20540;-71
2022/07/14 11:19:31;;;;;;;34.13;32.23;;;33.90;31.50;;;;;;4971125;28;20486;-69
2022/07/14 11:22:18;;;;;;;31.40;29.60;;;33.80;31.40;;;;;;4972668;28;20492;-71
2022/07/14 11:24:50;;;;;;;34.63;32.60;;;33.60;31.60;;;;;;4972870;28;20565;-70
2022/07/14 11:27:27;;;;;;;32.47;30.17;;;33.30;32.00;;;;;;4971600;28;20459;-71
2022/07/14 11:29:57;;;;;;;35.60;33.60;;;33.00;32.60;;;;;;4953742;28;20502;-71
2022/07/14 11:32:32;;;;;;;34.67;32.40;;;33.00;32.70;;;;;;4955341;28;20468;-70
2022/07/14 11:37:58;;;;;;;30.73;28.93;;;33.30;33.40;;;;;;4971415;28;20498;-70
2022/07/14 11:40:43;;;;;;;30.90;29.10;;;33.60;32.50;;;;;;4972501;28;20488;-70
2022/07/14 11:43:43;;;;;;;34.50;32.40;;;33.50;32.90;;;;;;4968780;28;20463;-71
2022/07/14 11:46:11;;;;;;;34.50;32.40;;;33.60;33.40;;;;;;4964695;28;20982;-70
2022/07/14 11:48:40;;;;;;;32.13;30.27;;;33.80;32.40;;;;;;4968647;28;20486;-70
2022/07/14 11:51:11;;;;;;;34.77;32.53;;;34.00;32.30;;;;;;4972997;28;20546;-70
2022/07/14 11:53:39;;;;;;;32.97;30.73;;;34.10;32.50;;;;;;4969356;28;21165;-71
2022/07/14 11:56:07;;;;;;;31.47;29.63;;;34.30;31.90;;;;;;4972738;28;20522;-71
2022/07/14 11:58:37;;;;;;;32.00;29.77;;;34.50;32.10;;;;;;4970149;28;20929;-70
2022/07/14 12:01:05;;;;;;;32.03;30.27;;;34.50;32.30;;;;;;4972755;28;20494;-70
2022/07/14 12:03:32;;;;;;;37.27;35.40;;;34.60;32.30;;;;;;4971966;28;21047;-71
2022/07/14 12:06:00;;;;;;;37.00;34.80;;;34.50;31.40;;;;;;4971149;28;20482;-70
2022/07/14 12:08:31;;;;;;;33.83;31.50;;;34.50;32.30;;;;;;4970321;28;20486;-71
2022/07/14 12:11:03;;;;;;;35.00;32.90;;;34.40;32.20;;;;;;4971018;28;20494;-70
2022/07/14 12:13:30;;;;;;;34.30;32.00;;;34.20;33.30;;;;;;4971185;28;20820;-70
2022/07/14 12:16:03;;;;;;;39.63;37.17;;;34.20;33.10;;;;;;4971275;28;20462;-71
2022/07/14 12:18:35;;;;;;;34.30;32.20;;;34.40;33.00;;;;;;4968328;28;20976;-71
2022/07/14 12:21:02;;;;;;;32.00;29.40;;;34.60;32.10;;;;;;4972292;28;20494;-71
2022/07/14 12:23:30;;;;;;;31.33;29.47;;;34.70;32.10;;;;;;4971466;28;20454;-71
2022/07/14 12:26:10;;;;;;;32.80;30.80;;;34.70;31.90;;;;;;4971169;28;20542;-71
2022/07/14 12:28:37;;;;;;;30.97;29.17;;;34.90;31.70;;;;;;4955521;28;20584;-70
2022/07/14 12:31:04;;;;;;;35.30;33.40;;;35.10;31.70;;;;;;4965807;28;21051;-72
2022/07/14 12:33:36;;;;;;;35.40;33.30;;;35.60;31.00;;;;;;4968726;28;20541;-71
2022/07/14 12:36:04;;;;;;;33.50;31.33;;;35.80;30.70;;;;;;4956021;28;20454;-74
2022/07/14 12:38:36;;;;;;;32.27;30.27;;;35.90;31.10;;;;;;4967071;28;20569;-71
2022/07/14 12:41:04;;;;;;;33.03;30.70;;;36.30;30.10;;;;;;4968157;28;20463;-71
2022/07/14 12:43:32;;;;;;;32.53;30.73;;;36.20;29.80;;;;;;4971517;28;20479;-71
2022/07/14 12:46:02;;;;;;;34.73;32.63;;;36.10;29.90;;;;;;4966140;28;20821;-70
2022/07/14 12:48:30;;;;;;;35.33;33.20;;;35.80;29.90;;;;;;4968139;28;20996;-73
2022/07/14 12:50:57;;;;;;;32.63;30.07;;;35.70;30.70;;;;;;4970962;28;20559;-71
2022/07/14 12:53:24;;;;;;;32.13;30.10;;;35.70;29.90;;;;;;4968677;28;20463;-71
2022/07/14 12:55:59;;;;;;;31.53;29.50;;;35.00;29.80;;;;;;4969225;28;20469;-71